createdAt,value
2023-01-28T00:01:07.977Z,17.52
2023-01-28T00:03:32.610Z,16.27
2023-01-28T00:06:04.444Z,14.13
2023-01-28T00:08:29.464Z,16.10
2023-01-28T00:10:55.967Z,14.98
2023-01-28T00:13:20.673Z,11.38
2023-01-28T00:15:45.620Z,13.43
2023-01-28T00:18:10.423Z,14.57
2023-01-28T00:20:35.576Z,12.93
2023-01-28T00:23:00.301Z,13.52
2023-01-28T00:25:24.874Z,13.85
2023-01-28T00:27:51.944Z,13.18
2023-01-28T00:30:16.934Z,11.85
2023-01-28T00:32:43.567Z,14.00
2023-01-28T00:35:10.838Z,15.18
2023-01-28T00:37:37.135Z,11.98
2023-01-28T00:40:01.624Z,15.15
2023-01-28T00:42:28.917Z,13.48
2023-01-28T00:44:55.448Z,15.27
2023-01-28T00:47:20.150Z,13.55
2023-01-28T00:49:44.714Z,14.40
2023-01-28T00:52:09.405Z,14.63
2023-01-28T00:54:36.602Z,14.43
2023-01-28T00:57:01.378Z,14.95
2023-01-28T00:59:26.134Z,15.05
2023-01-28T01:01:53.753Z,13.63
2023-01-28T01:04:26.836Z,13.27
2023-01-28T01:06:51.664Z,14.18
2023-01-28T01:09:17.515Z,11.05
2023-01-28T01:11:42.185Z,13.27
2023-01-28T01:14:07.377Z,14.93
2023-01-28T01:16:33.639Z,14.15
2023-01-28T01:19:00.438Z,15.50
2023-01-28T01:21:27.884Z,12.57
2023-01-28T01:23:53.558Z,14.20
2023-01-28T01:26:19.859Z,13.45
2023-01-28T01:28:45.004Z,13.70
2023-01-28T01:31:15.147Z,13.60
2023-01-28T01:33:41.096Z,14.63
2023-01-28T01:36:08.090Z,13.15
2023-01-28T01:38:33.235Z,14.80
2023-01-28T01:41:00.049Z,15.40
2023-01-28T01:43:26.110Z,17.73
2023-01-28T01:45:55.438Z,13.60
2023-01-28T01:48:26.631Z,13.75
2023-01-28T01:50:55.557Z,11.82
2023-01-28T01:53:26.536Z,14.45
2023-01-28T01:55:54.569Z,13.82
2023-01-28T01:58:23.397Z,12.30
2023-01-28T02:00:48.573Z,12.98
2023-01-28T02:03:14.251Z,13.90
2023-01-28T02:05:41.479Z,12.65
2023-01-28T02:10:37.248Z,12.90
2023-01-28T02:13:02.228Z,13.38
2023-01-28T02:15:29.881Z,12.98
2023-01-28T02:17:55.323Z,11.85
2023-01-28T02:20:23.420Z,12.38
2023-01-28T02:23:18.845Z,13.50
2023-01-28T02:26:04.382Z,13.90
2023-01-28T02:28:35.797Z,11.55
2023-01-28T02:31:07.569Z,13.07
2023-01-28T02:33:39.365Z,12.73
2023-01-28T02:36:14.086Z,12.40
2023-01-28T02:38:45.138Z,11.77
2023-01-28T02:41:16.059Z,11.43
2023-01-28T02:43:43.794Z,11.68
2023-01-28T02:46:39.557Z,11.98
2023-01-28T02:49:06.669Z,12.13
2023-01-28T02:51:44.353Z,11.82
2023-01-28T02:54:15.666Z,12.07
2023-01-28T02:56:47.266Z,13.05
2023-01-28T02:59:34.363Z,11.52
2023-01-28T03:02:14.308Z,12.05
2023-01-28T03:04:43.915Z,10.27
2023-01-28T03:07:10.324Z,11.65
2023-01-28T03:09:34.792Z,11.40
2023-01-28T03:12:21.668Z,11.85
2023-01-28T03:15:09.920Z,11.63
2023-01-28T03:17:59.235Z,11.68
2023-01-28T03:20:45.542Z,10.00
2023-01-28T03:23:33.816Z,11.48
2023-01-28T03:26:19.541Z,11.00
2023-01-28T03:29:04.646Z,11.50
2023-01-28T03:31:48.393Z,11.18
2023-01-28T03:34:32.866Z,10.48
2023-01-28T03:36:58.246Z,10.50
2023-01-28T03:39:35.424Z,10.48
2023-01-28T03:42:03.761Z,11.07
2023-01-28T03:44:45.986Z,9.93
2023-01-28T03:47:12.897Z,10.38
2023-01-28T03:49:38.017Z,10.38
2023-01-28T03:52:02.642Z,10.15
2023-01-28T03:54:27.272Z,10.02
2023-01-28T03:56:51.853Z,9.50
2023-01-28T03:59:16.559Z,9.93
2023-01-28T04:01:41.274Z,9.77
2023-01-28T04:04:07.550Z,9.55
2023-01-28T04:06:32.937Z,10.30
2023-01-28T04:09:17.843Z,9.57
2023-01-28T04:11:52.445Z,9.90
2023-01-28T04:14:28.027Z,10.40
2023-01-28T04:17:05.769Z,11.05
2023-01-28T04:19:37.496Z,12.00
2023-01-28T04:22:03.888Z,11.75
2023-01-28T04:24:28.849Z,11.93
2023-01-28T04:26:56.229Z,12.02
2023-01-28T04:29:21.302Z,13.15
2023-01-28T04:31:48.013Z,12.13
2023-01-28T04:34:21.402Z,12.50
2023-01-28T04:37:03.440Z,14.13
2023-01-28T04:39:40.540Z,13.20
2023-01-28T04:42:17.942Z,12.85
2023-01-28T04:45:02.917Z,13.13
2023-01-28T04:47:54.420Z,13.18
2023-01-28T04:50:35.740Z,13.63
2023-01-28T04:58:32.279Z,14.55
2023-01-28T05:01:03.109Z,14.80
2023-01-28T05:03:29.068Z,16.05
2023-01-28T05:05:54.080Z,15.75
2023-01-28T05:08:41.425Z,15.88
2023-01-28T05:11:06.359Z,17.35
2023-01-28T05:13:31.383Z,16.45
2023-01-28T05:15:56.459Z,16.70
2023-01-28T05:18:21.768Z,18.90
2023-01-28T05:20:59.789Z,17.23
2023-01-28T05:23:25.075Z,17.70
2023-01-28T05:25:54.830Z,17.38
2023-01-28T05:28:20.609Z,19.67
2023-01-28T05:30:45.387Z,17.83
2023-01-28T05:33:10.145Z,17.63
2023-01-28T05:35:37.461Z,18.40
2023-01-28T05:38:02.469Z,16.63
2023-01-28T05:40:27.323Z,16.95
2023-01-28T05:42:53.430Z,15.85
2023-01-28T05:45:36.812Z,16.45
2023-01-28T05:48:08.940Z,16.55
2023-01-28T05:50:52.335Z,17.33
2023-01-28T05:53:29.012Z,16.45
2023-01-28T05:55:54.680Z,16.23
2023-01-28T05:58:22.427Z,15.75
2023-01-28T06:00:47.236Z,16.67
2023-01-28T06:03:15.953Z,18.17
2023-01-28T06:05:41.457Z,16.13
2023-01-28T06:08:06.889Z,17.25
2023-01-28T06:10:32.111Z,18.15
2023-01-28T06:12:56.794Z,16.17
2023-01-28T06:15:54.340Z,16.35
2023-01-28T06:18:31.312Z,17.67
2023-01-28T06:20:59.432Z,15.00
2023-01-28T06:23:24.150Z,16.40
2023-01-28T06:25:48.983Z,16.88
2023-01-28T06:28:14.009Z,16.45
2023-01-28T06:30:38.756Z,15.45
2023-01-28T06:33:05.145Z,15.15
2023-01-28T06:35:29.838Z,14.90
2023-01-28T06:37:55.906Z,14.73
2023-01-28T06:40:23.111Z,14.52
2023-01-28T06:42:47.796Z,14.73
2023-01-28T06:45:13.324Z,15.68
2023-01-28T06:47:40.094Z,14.95
2023-01-28T06:50:07.012Z,14.75
2023-01-28T06:52:31.803Z,14.43
2023-01-28T06:54:56.690Z,14.60
2023-01-28T06:57:21.341Z,14.30
2023-01-28T06:59:46.280Z,15.88
2023-01-28T07:02:12.374Z,14.95
2023-01-28T07:04:37.693Z,18.08
2023-01-28T07:07:03.756Z,18.98
2023-01-28T07:09:28.732Z,18.58
2023-01-28T07:11:53.476Z,19.75
2023-01-28T07:14:18.038Z,18.35
2023-01-28T07:16:42.560Z,19.27
2023-01-28T07:19:07.818Z,15.52
2023-01-28T07:21:32.346Z,15.38
2023-01-28T07:23:58.642Z,14.18
2023-01-28T07:26:23.933Z,14.85
2023-01-28T07:28:48.452Z,13.60
2023-01-28T07:31:12.969Z,12.40
2023-01-28T07:33:37.543Z,13.65
2023-01-28T07:36:02.348Z,12.40
2023-01-28T07:38:26.931Z,12.88
2023-01-28T07:40:52.922Z,12.52
2023-01-28T07:43:17.576Z,12.82
2023-01-28T07:45:42.240Z,12.20
2023-01-28T07:48:08.988Z,13.63
2023-01-28T07:50:35.306Z,13.48
2023-01-28T07:53:00.088Z,12.68
2023-01-28T07:55:25.496Z,13.48
2023-01-28T07:57:52.945Z,13.07
2023-01-28T08:00:18.084Z,12.07
2023-01-28T08:02:45.177Z,13.00
2023-01-28T08:05:10.646Z,11.82
2023-01-28T08:07:35.465Z,11.82
2023-01-28T08:09:59.963Z,12.50
2023-01-28T08:12:25.323Z,12.40
2023-01-28T08:14:51.501Z,14.60
2023-01-28T08:17:16.373Z,13.25
2023-01-28T08:19:41.475Z,13.13
2023-01-28T08:22:06.192Z,12.18
2023-01-28T08:24:31.734Z,13.05
2023-01-28T08:26:56.486Z,11.80
2023-01-28T08:29:21.286Z,12.95
2023-01-28T08:31:47.665Z,13.18
2023-01-28T08:34:12.280Z,13.00
2023-01-28T08:36:36.980Z,13.10
2023-01-28T08:39:01.825Z,12.23
2023-01-28T08:41:26.629Z,12.93
2023-01-28T08:43:51.508Z,12.35
2023-01-28T08:46:16.735Z,13.18
2023-01-28T08:48:42.958Z,12.70
2023-01-28T08:51:07.866Z,13.30
2023-01-28T08:53:34.213Z,12.40
2023-01-28T08:55:59.126Z,13.32
2023-01-28T08:58:24.193Z,13.77
2023-01-28T09:00:49.751Z,13.85
2023-01-28T09:03:14.317Z,14.18
2023-01-28T09:05:41.391Z,13.10
2023-01-28T09:08:07.611Z,12.77
2023-01-28T09:10:32.174Z,14.75
2023-01-28T09:12:56.633Z,13.15
2023-01-28T09:15:21.449Z,12.50
2023-01-28T09:17:45.954Z,12.85
2023-01-28T09:20:13.902Z,13.95
2023-01-28T09:22:40.318Z,12.95
2023-01-28T09:25:05.782Z,12.52
2023-01-28T09:27:30.363Z,11.95
2023-01-28T09:29:55.166Z,12.98
2023-01-28T09:32:20.122Z,13.43
2023-01-28T09:34:44.912Z,12.73
2023-01-28T09:37:09.663Z,12.77
2023-01-28T09:39:36.121Z,14.05
2023-01-28T09:42:18.657Z,13.98
2023-01-28T09:44:55.690Z,14.30
2023-01-28T09:47:25.811Z,12.68
2023-01-28T09:49:54.164Z,13.75
2023-01-28T09:52:22.874Z,13.38
2023-01-28T09:54:51.556Z,13.93
2023-01-28T09:57:22.360Z,13.13
2023-01-28T09:59:47.169Z,14.25
2023-01-28T10:02:35.075Z,14.50
2023-01-28T10:05:07.398Z,14.60
2023-01-28T10:07:39.200Z,15.40
2023-01-28T10:10:12.758Z,16.80
2023-01-28T10:13:00.281Z,15.05
2023-01-28T10:15:49.230Z,16.75
2023-01-28T10:18:18.016Z,15.95
2023-01-28T10:20:46.632Z,15.82
2023-01-28T10:23:17.487Z,16.45
2023-01-28T10:25:48.338Z,15.48
2023-01-28T10:30:42.109Z,14.93
2023-01-28T10:33:15.413Z,15.90
2023-01-28T10:35:42.883Z,13.63
2023-01-28T10:38:11.306Z,14.75
2023-01-28T10:40:37.275Z,13.75
2023-01-28T10:43:03.696Z,14.50
2023-01-28T10:45:32.442Z,13.85
2023-01-28T10:48:03.752Z,13.43
2023-01-28T10:50:31.181Z,14.55
2023-01-28T10:52:57.173Z,12.73
2023-01-28T10:55:22.594Z,12.10
2023-01-28T10:57:47.603Z,11.70
2023-01-28T11:00:26.132Z,12.32
2023-01-28T11:02:51.992Z,12.90
2023-01-28T11:05:19.236Z,11.75
2023-01-28T11:07:44.067Z,12.32
2023-01-28T11:10:29.953Z,12.55
2023-01-28T11:12:58.801Z,13.65
2023-01-28T11:15:25.076Z,13.20
2023-01-28T11:17:54.303Z,13.10
2023-01-28T11:20:23.531Z,13.07
2023-01-28T11:22:49.813Z,13.75
2023-01-28T11:25:20.704Z,12.93
2023-01-28T11:27:50.007Z,13.63
2023-01-28T11:30:26.720Z,12.40
2023-01-28T11:32:58.819Z,12.18
2023-01-28T11:35:30.527Z,12.18
2023-01-28T11:37:55.255Z,13.38
2023-01-28T11:40:22.487Z,13.85
2023-01-28T11:42:48.902Z,14.70
2023-01-28T11:45:18.652Z,15.00
2023-01-28T11:50:37.751Z,13.80
2023-01-28T11:53:40.507Z,14.48
2023-01-28T11:56:24.037Z,14.38
2023-01-28T11:59:04.576Z,14.13
2023-01-28T12:01:45.111Z,15.13
2023-01-28T12:04:24.633Z,15.93
2023-01-28T12:07:15.361Z,16.83
2023-01-28T12:09:53.799Z,15.40
2023-01-28T12:12:49.108Z,15.90
2023-01-28T12:15:43.264Z,16.20
2023-01-28T12:18:18.057Z,15.65
2023-01-28T12:21:08.704Z,15.70
2023-01-28T12:23:52.574Z,15.82
2023-01-28T12:26:25.051Z,15.10
2023-01-28T12:29:02.742Z,16.10
2023-01-28T12:31:57.041Z,16.42
2023-01-28T12:34:50.136Z,16.95
2023-01-28T12:37:22.611Z,16.65
2023-01-28T12:40:01.278Z,17.40
2023-01-28T12:42:36.436Z,16.75
2023-01-28T12:45:06.673Z,17.00
2023-01-28T12:47:37.493Z,16.17
2023-01-28T12:50:07.369Z,16.73
2023-01-28T12:55:05.430Z,15.80
2023-01-28T12:57:31.751Z,17.10
2023-01-28T13:00:05.147Z,16.35
2023-01-28T13:02:36.427Z,16.17
2023-01-28T13:05:09.645Z,15.77
2023-01-28T13:07:42.947Z,15.30
2023-01-28T13:10:15.362Z,15.23
2023-01-28T13:12:41.641Z,15.57
2023-01-28T13:15:12.925Z,16.40
2023-01-28T13:17:37.985Z,15.05
2023-01-28T13:20:03.090Z,15.13
2023-01-28T13:22:31.320Z,14.32
2023-01-28T13:24:57.494Z,14.95
2023-01-28T13:27:26.557Z,15.20
2023-01-28T13:30:01.822Z,15.98
2023-01-28T13:32:34.555Z,15.68
2023-01-28T13:35:01.901Z,15.00
2023-01-28T13:37:33.428Z,15.40
2023-01-28T13:40:04.573Z,15.70
2023-01-28T13:42:31.154Z,15.45
2023-01-28T13:44:56.367Z,17.55
2023-01-28T13:47:35.293Z,15.77
2023-01-28T13:50:04.030Z,16.65
2023-01-28T13:52:32.091Z,16.55
2023-01-28T13:55:02.841Z,17.30
2023-01-28T13:57:50.112Z,16.08
2023-01-28T14:00:26.555Z,16.65
2023-01-28T14:03:32.262Z,16.00
2023-01-28T14:06:21.022Z,15.55
2023-01-28T14:09:12.860Z,17.50
2023-01-28T14:12:15.990Z,16.90
2023-01-28T14:15:22.826Z,17.00
2023-01-28T14:17:50.454Z,19.17
2023-01-28T14:20:21.329Z,17.60
2023-01-28T14:22:46.308Z,17.13
2023-01-28T14:25:17.696Z,16.77
2023-01-28T14:27:48.866Z,17.40
2023-01-28T14:30:25.867Z,16.95
2023-01-28T14:32:53.008Z,17.65
2023-01-28T14:35:21.698Z,17.70
2023-01-28T14:37:47.099Z,16.10
2023-01-28T14:40:17.851Z,17.70
2023-01-28T14:42:47.643Z,18.65
2023-01-28T14:45:30.711Z,19.00
2023-01-28T14:48:12.351Z,18.23
2023-01-28T14:50:59.563Z,18.52
2023-01-28T14:53:50.147Z,19.10
2023-01-28T14:56:23.475Z,19.35
2023-01-28T14:58:54.613Z,19.23
2023-01-28T15:01:24.789Z,19.70
2023-01-28T15:03:49.682Z,19.05
2023-01-28T15:06:16.733Z,19.65
2023-01-28T15:08:42.322Z,20.98
2023-01-28T15:11:10.021Z,20.77
2023-01-28T15:13:40.454Z,19.55
2023-01-28T15:16:08.362Z,19.48
2023-01-28T15:18:35.713Z,20.85
2023-01-28T15:21:01.723Z,20.25
2023-01-28T15:23:29.742Z,20.55
2023-01-28T15:25:55.503Z,21.30
2023-01-28T15:28:28.004Z,21.05
2023-01-28T15:30:52.658Z,22.08
2023-01-28T15:33:19.007Z,22.50
2023-01-28T15:35:49.023Z,23.02
2023-01-28T15:38:13.590Z,20.80
2023-01-28T15:40:43.989Z,21.77
2023-01-28T15:43:14.809Z,20.98
2023-01-28T15:45:41.190Z,22.15
2023-01-28T15:48:09.893Z,24.92
2023-01-28T15:50:36.066Z,24.23
2023-01-28T15:53:02.354Z,24.55
2023-01-28T15:55:35.894Z,23.60
2023-01-28T15:58:17.856Z,24.30
2023-01-28T16:00:42.812Z,21.90
2023-01-28T16:03:11.029Z,20.73
2023-01-28T16:05:40.253Z,22.95
2023-01-28T16:08:10.116Z,22.83
2023-01-28T16:10:35.470Z,22.60
2023-01-28T16:13:08.257Z,20.45
2023-01-28T16:15:33.920Z,21.88
2023-01-28T16:17:58.818Z,22.23
2023-01-28T16:20:25.847Z,21.92
2023-01-28T16:22:52.932Z,21.83
2023-01-28T16:25:37.333Z,24.60
2023-01-28T16:28:03.945Z,22.15
2023-01-28T16:30:29.391Z,23.65
2023-01-28T16:32:55.566Z,24.73
2023-01-28T16:35:21.893Z,23.17
2023-01-28T16:37:46.947Z,24.27
2023-01-28T16:40:15.429Z,25.80
2023-01-28T16:42:40.164Z,25.73
2023-01-28T16:45:06.138Z,24.45
2023-01-28T16:47:30.844Z,24.63
2023-01-28T16:49:55.331Z,26.58
2023-01-28T16:52:20.259Z,26.42
2023-01-28T16:54:45.843Z,26.63
2023-01-28T16:57:15.551Z,25.05
2023-01-28T16:59:40.141Z,25.73
2023-01-28T17:02:05.984Z,25.67
2023-01-28T17:04:30.776Z,26.08
2023-01-28T17:06:55.418Z,27.15
2023-01-28T17:09:20.591Z,27.20
2023-01-28T17:11:45.353Z,25.63
2023-01-28T17:14:12.523Z,25.63
2023-01-28T17:16:38.449Z,26.38
2023-01-28T17:19:03.536Z,24.80
2023-01-28T17:21:28.404Z,26.13
2023-01-28T17:23:53.710Z,25.75
2023-01-28T17:26:19.147Z,25.20
2023-01-28T17:28:44.572Z,26.92
2023-01-28T17:31:14.319Z,25.00
2023-01-28T17:36:03.869Z,25.52
2023-01-28T17:38:28.756Z,26.38
2023-01-28T17:40:53.362Z,25.45
2023-01-28T17:43:18.447Z,26.65
2023-01-28T17:45:43.223Z,25.95
2023-01-28T17:48:10.109Z,26.92
2023-01-28T17:50:35.152Z,27.95
2023-01-28T17:53:00.151Z,25.98
2023-01-28T17:55:25.221Z,27.58
2023-01-28T17:57:50.293Z,26.33
2023-01-28T18:00:16.927Z,26.48
2023-01-28T18:02:44.580Z,24.15
2023-01-28T18:05:11.111Z,25.42
2023-01-28T18:07:35.813Z,27.25
2023-01-28T18:10:00.547Z,25.45
2023-01-28T18:12:25.767Z,27.45
2023-01-28T18:14:50.489Z,26.50
2023-01-28T18:17:15.088Z,25.95
2023-01-28T18:19:40.027Z,25.27
2023-01-28T18:22:06.089Z,27.02
2023-01-28T18:24:31.877Z,25.48
2023-01-28T18:26:59.966Z,27.05
2023-01-28T18:29:25.189Z,27.33
2023-01-28T18:31:50.843Z,27.00
2023-01-28T18:34:16.406Z,27.17
2023-01-28T18:36:41.328Z,25.95
2023-01-28T18:39:07.896Z,26.92
2023-01-28T18:41:32.966Z,25.23
2023-01-28T18:43:58.000Z,26.73
2023-01-28T18:46:22.639Z,25.38
2023-01-28T18:48:48.223Z,26.85
2023-01-28T18:51:28.965Z,27.05
2023-01-28T18:53:57.256Z,29.02
2023-01-28T18:56:23.416Z,27.80
2023-01-28T18:58:48.470Z,27.98
2023-01-28T19:01:13.748Z,28.52
2023-01-28T19:03:39.085Z,30.48
2023-01-28T19:06:06.657Z,30.63
2023-01-28T19:08:31.402Z,29.98
2023-01-28T19:10:59.004Z,30.60
2023-01-28T19:13:25.383Z,29.05
2023-01-28T19:15:50.189Z,31.25
2023-01-28T19:18:15.509Z,31.15
2023-01-28T19:20:41.536Z,31.23
2023-01-28T19:23:07.577Z,30.63
2023-01-28T19:25:32.243Z,33.60
2023-01-28T19:27:56.868Z,31.17
2023-01-28T19:30:23.415Z,30.58
2023-01-28T19:32:48.311Z,30.52
2023-01-28T19:35:13.898Z,30.77
2023-01-28T19:37:39.043Z,28.75
2023-01-28T19:40:04.226Z,28.83
2023-01-28T19:42:29.189Z,26.98
2023-01-28T19:44:54.014Z,30.33
2023-01-28T19:47:21.649Z,28.45
2023-01-28T19:49:46.223Z,27.20
2023-01-28T19:52:11.097Z,27.73
2023-01-28T19:54:35.623Z,27.10
2023-01-28T19:57:00.333Z,27.52
2023-01-28T19:59:25.068Z,27.55
2023-01-28T20:01:49.649Z,28.30
2023-01-28T20:04:18.900Z,26.73
2023-01-28T20:06:43.896Z,27.60
2023-01-28T20:09:15.526Z,25.95
2023-01-28T20:11:40.342Z,26.70
2023-01-28T20:14:05.305Z,26.55
2023-01-28T20:16:31.873Z,27.65
2023-01-28T20:18:58.891Z,28.20
2023-01-28T20:21:26.244Z,27.77
2023-01-28T20:23:52.941Z,30.17
2023-01-28T20:26:18.323Z,34.20
2023-01-28T20:28:43.114Z,34.63
2023-01-28T20:31:10.280Z,36.60
2023-01-28T20:33:35.023Z,36.63
2023-01-28T20:36:03.251Z,39.28
2023-01-28T20:38:29.195Z,38.92
2023-01-28T20:40:53.801Z,35.50
2023-01-28T20:43:18.445Z,33.47
2023-01-28T20:45:43.202Z,36.25
2023-01-28T20:48:08.338Z,36.00
2023-01-28T20:50:33.049Z,34.22
2023-01-28T20:52:58.226Z,37.05
2023-01-28T20:55:24.742Z,36.45
2023-01-28T20:57:49.797Z,36.65
2023-01-28T21:00:15.553Z,38.47
2023-01-28T21:02:43.434Z,38.72
2023-01-28T21:05:10.137Z,37.53
2023-01-28T21:07:35.347Z,36.22
2023-01-28T21:10:02.310Z,36.70
2023-01-28T21:12:31.162Z,34.40
2023-01-28T21:14:55.876Z,28.02
2023-01-28T21:17:20.629Z,32.47
2023-01-28T21:19:45.528Z,32.70
2023-01-28T21:22:10.015Z,31.10
2023-01-28T21:24:35.607Z,27.85
2023-01-28T21:27:01.082Z,29.25
2023-01-28T21:29:27.582Z,27.40
2023-01-28T21:31:52.423Z,24.92
2023-01-28T21:34:17.621Z,24.73
2023-01-28T21:36:42.282Z,24.48
2023-01-28T21:39:07.028Z,22.77
2023-01-28T21:41:32.531Z,22.13
2023-01-28T21:43:57.835Z,20.45
2023-01-28T21:46:24.851Z,20.67
2023-01-28T21:48:49.669Z,19.45
2023-01-28T21:51:31.539Z,20.52
2023-01-28T21:53:56.147Z,19.85
2023-01-28T21:56:20.692Z,19.00
2023-01-28T21:59:02.948Z,18.42
2023-01-28T22:01:29.266Z,18.02
2023-01-28T22:03:53.771Z,18.10
2023-01-28T22:06:18.602Z,19.45
2023-01-28T22:08:43.174Z,21.02
2023-01-28T22:11:09.251Z,21.15
2023-01-28T22:13:34.454Z,21.25
2023-01-28T22:15:59.745Z,21.77
2023-01-28T22:18:25.633Z,22.95
2023-01-28T22:20:58.216Z,21.80
2023-01-28T22:23:24.584Z,23.67
2023-01-28T22:25:49.082Z,23.00
2023-01-28T22:28:13.878Z,24.85
2023-01-28T22:30:38.411Z,23.83
2023-01-28T22:33:03.172Z,26.13
2023-01-28T22:35:29.466Z,25.33
2023-01-28T22:37:54.139Z,25.73
2023-01-28T22:40:19.165Z,25.40
2023-01-28T22:42:43.749Z,24.38
2023-01-28T22:45:09.991Z,25.65
2023-01-28T22:47:34.651Z,23.95
2023-01-28T22:49:59.222Z,24.63
2023-01-28T22:52:25.632Z,22.75
2023-01-28T22:54:51.798Z,24.10
2023-01-28T22:57:16.524Z,23.30
2023-01-28T22:59:43.757Z,22.48
2023-01-28T23:02:10.490Z,23.30
2023-01-28T23:04:35.206Z,22.17
2023-01-28T23:06:59.903Z,20.88
2023-01-28T23:09:25.939Z,20.15
2023-01-28T23:11:50.609Z,19.65
2023-01-28T23:14:32.819Z,18.95
2023-01-28T23:17:14.822Z,19.83
2023-01-28T23:19:56.802Z,18.55
2023-01-28T23:22:50.865Z,18.73
2023-01-28T23:25:17.610Z,19.17
2023-01-28T23:27:42.243Z,17.30
2023-01-28T23:30:10.621Z,18.77
2023-01-28T23:32:35.985Z,20.10
2023-01-28T23:35:01.030Z,17.25
2023-01-28T23:37:27.760Z,17.00
2023-01-28T23:39:52.490Z,16.40
2023-01-28T23:42:20.990Z,14.98
2023-01-28T23:44:46.112Z,15.73
2023-01-28T23:47:11.379Z,15.57
2023-01-28T23:49:36.852Z,16.55
2023-01-28T23:52:01.561Z,17.33
2023-01-28T23:54:27.038Z,18.38
2023-01-28T23:56:51.659Z,18.60
2023-01-28T23:59:20.443Z,18.77
